PWSweather.com
Personal Weather Stations
Station Observations
THAIWX
Pa Daet, Chiang MaiTH 50100

Pa DaetChiang MaiTH 50100

Lat: 18.766158, Lon: 98.97553

Elevation: 1007

Station Type: LaCrosse WS2315

http://www.ThaiWx.yolasite.com/

Latest ConditionsUpdated 1:16:07 PM GMT+07:07 Monday, Aug 21, 2017
Currently Today's Max Today's Min Today's Average
Temperature 80.6°F27.0°C 80.6°F27.0°C 75.0°F23.9°C 76.6°F24.8°C
Dew Point 77.4°F25.2°C 78.0°F25.6°C 74.4°F23.6°C 75.7°F24.3°C
Winds Calm Calm 1.3 mph WSW2.1 kmh WSW - 0.0 mph 0.0 kmh
Wind Gusts 0.7 mph1.1 kmh 1.3 mph2.1 kmh - -
Humidity 90% 99% 90% 97%
Pressure 29.75 in1007.5 mb 29.82 in1009.8 mb 29.75 in1007.5 mb -
Precipitation - 0.27 in6.9 mm - -
Hour Temp Dew Point Humidity Winds Wind Gusts Pressure Precip Precip Rate Daily Precip Total
01:16 PM 80.6°F27.0°C 77.4°F25.2°C 90% Calm Calm 0.7 mph1.1 kmh 29.75 in1007.5 mb 0.00 in0.0 mm 0.00 in0.0 mm 0.27 in6.9 mm
01:09 PM 80.2°F26.8°C 77.0°F25.0°C 90% Calm Calm 0.7 mph1.1 kmh 29.75 in1007.5 mb 0.00 in0.0 mm 0.00 in0.0 mm 0.27 in6.9 mm
01:05 PM 80.1°F26.7°C 77.5°F25.3°C 92% 0.7 mph W1.1 kmh W 0.7 mph1.1 kmh 29.76 in1007.8 mb 0.00 in0.0 mm 0.00 in0.0 mm 0.27 in6.9 mm
01:01 PM 79.5°F26.4°C 77.0°F25.0°C 92% Calm Calm -- 29.76 in1007.8 mb 0.00 in0.0 mm 0.00 in0.0 mm 0.27 in6.9 mm
12:54 PM 79.3°F26.3°C 76.8°F24.9°C 92% Calm Calm -- 29.76 in1007.8 mb 0.00 in0.0 mm 0.00 in0.0 mm 0.27 in6.9 mm
12:50 PM 79.0°F26.1°C 76.5°F24.7°C 92% Calm Calm -- 29.77 in1008.1 mb 0.00 in0.0 mm 0.00 in0.0 mm 0.27 in6.9 mm
12:43 PM 78.6°F25.9°C 76.8°F24.9°C 94% Calm Calm -- 29.77 in1008.1 mb 0.00 in0.0 mm 0.00 in0.0 mm 0.27 in6.9 mm
12:39 PM 78.6°F25.9°C 76.8°F24.9°C 94% Calm Calm -- 29.77 in1008.1 mb 0.00 in0.0 mm 0.00 in0.0 mm 0.27 in6.9 mm
12:33 PM 78.6°F25.9°C 76.8°F24.9°C 94% Calm Calm -- 29.77 in1008.1 mb 0.00 in0.0 mm 0.00 in0.0 mm 0.27 in6.9 mm
12:28 PM 78.6°F25.9°C 76.8°F24.9°C 94% Calm Calm -- 29.78 in1008.5 mb 0.00 in0.0 mm 0.00 in0.0 mm 0.27 in6.9 mm
12:24 PM 78.4°F25.8°C 76.6°F24.8°C 94% Calm Calm -- 29.78 in1008.5 mb 0.00 in0.0 mm 0.00 in0.0 mm 0.27 in6.9 mm
12:18 PM 78.4°F25.8°C 76.6°F24.8°C 94% Calm Calm -- 29.79 in1008.8 mb 0.00 in0.0 mm 0.00 in0.0 mm 0.27 in6.9 mm
12:11 PM 78.1°F25.6°C 76.6°F24.8°C 95% Calm Calm -- 29.79 in1008.8 mb 0.02 in0.5 mm 0.00 in0.0 mm 0.27 in6.9 mm
12:07 PM 77.9°F25.5°C 76.4°F24.7°C 95% Calm Calm -- 29.80 in1009.1 mb 0.02 in0.5 mm 0.00 in0.0 mm 0.27 in6.9 mm
12:01 PM 77.7°F25.4°C 76.2°F24.6°C 95% Calm Calm -- 29.80 in1009.1 mb 0.04 in1.0 mm 0.00 in0.0 mm 0.27 in6.9 mm
11:56 AM 77.5°F25.3°C 76.0°F24.4°C 95% Calm Calm -- 29.80 in1009.1 mb 0.06 in1.5 mm 0.00 in0.0 mm 0.27 in6.9 mm
11:50 AM 77.4°F25.2°C 76.1°F24.5°C 96% Calm Calm -- 29.80 in1009.1 mb 0.06 in1.5 mm 0.00 in0.0 mm 0.27 in6.9 mm
11:46 AM 77.4°F25.2°C 76.1°F24.5°C 96% Calm Calm -- 29.81 in1009.5 mb 0.06 in1.5 mm 0.00 in0.0 mm 0.27 in6.9 mm
11:41 AM 77.4°F25.2°C 76.1°F24.5°C 96% Calm Calm -- 29.80 in1009.1 mb 0.06 in1.5 mm 0.00 in0.0 mm 0.27 in6.9 mm
11:35 AM 77.2°F25.1°C 76.0°F24.4°C 96% Calm Calm -- 29.81 in1009.5 mb 0.06 in1.5 mm 0.00 in0.0 mm 0.27 in6.9 mm
11:31 AM 77.2°F25.1°C 76.0°F24.4°C 96% Calm Calm 0.7 mph1.1 kmh 29.81 in1009.5 mb 0.06 in1.5 mm 0.00 in0.0 mm 0.27 in6.9 mm
11:24 AM 77.2°F25.1°C 75.7°F24.3°C 96% 0.7 mph WSW1.1 kmh WSW 1.3 mph2.1 kmh 29.81 in1009.5 mb 0.06 in1.5 mm 0.00 in0.0 mm 0.27 in6.9 mm
11:18 AM 77.2°F25.1°C 75.7°F24.3°C 95% 1.3 mph WSW2.1 kmh WSW 1.3 mph2.1 kmh 29.81 in1009.5 mb 0.06 in1.5 mm 0.24 in6.1 mm 0.27 in6.9 mm
11:13 AM 77.4°F25.2°C 75.8°F24.3°C 95% Calm Calm 0.7 mph1.1 kmh 29.82 in1009.8 mb 0.04 in1.0 mm 0.00 in0.0 mm 0.25 in6.4 mm
11:09 AM 77.5°F25.3°C 76.0°F24.4°C 95% 0.4 mph SSW0.6 kmh SSW 0.7 mph1.1 kmh 29.82 in1009.8 mb 0.04 in1.0 mm 0.20 in5.1 mm 0.25 in6.4 mm
11:03 AM 77.7°F25.4°C 75.9°F24.4°C 94% Calm Calm 1.1 mph1.8 kmh 29.82 in1009.8 mb 0.02 in0.5 mm 0.00 in0.0 mm 0.23 in5.8 mm
10:59 AM 78.1°F25.6°C 76.2°F24.6°C 94% 1.1 mph WSW1.8 kmh WSW 1.1 mph1.8 kmh 29.82 in1009.8 mb 0.02 in0.5 mm 0.17 in4.3 mm 0.21 in5.3 mm
10:52 AM 78.4°F25.8°C 76.6°F24.8°C 94% 1.1 mph WSW1.8 kmh WSW 1.1 mph1.8 kmh 29.82 in1009.8 mb 0.00 in0.0 mm 0.00 in0.0 mm 0.21 in5.3 mm
10:48 AM 78.6°F25.9°C 76.8°F24.9°C 94% 0.9 mph SW1.4 kmh SW 0.9 mph1.4 kmh 29.82 in1009.8 mb 0.00 in0.0 mm 0.00 in0.0 mm 0.21 in5.3 mm
10:43 AM 79.0°F26.1°C 77.1°F25.1°C 94% Calm Calm 0.9 mph1.4 kmh 29.82 in1009.8 mb 0.00 in0.0 mm 0.00 in0.0 mm 0.21 in5.3 mm
10:37 AM 79.2°F26.2°C 77.6°F25.3°C 94% Calm Calm -- 29.82 in1009.8 mb 0.00 in0.0 mm 0.00 in0.0 mm 0.21 in5.3 mm
10:33 AM 79.2°F26.2°C 77.6°F25.3°C 95% Calm Calm -- 29.82 in1009.8 mb 0.00 in0.0 mm 0.00 in0.0 mm 0.21 in5.3 mm
10:26 AM 79.0°F26.1°C 77.4°F25.2°C 95% Calm Calm -- 29.82 in1009.8 mb 0.00 in0.0 mm 0.00 in0.0 mm 0.21 in5.3 mm
10:20 AM 79.0°F26.1°C 77.7°F25.4°C 96% Calm Calm -- 29.82 in1009.8 mb 0.00 in0.0 mm 0.00 in0.0 mm 0.21 in5.3 mm
10:14 AM 79.0°F26.1°C 78.0°F25.6°C 97% Calm Calm -- 29.82 in1009.8 mb 0.00 in0.0 mm 0.00 in0.0 mm 0.21 in5.3 mm
10:09 AM 79.0°F26.1°C 78.0°F25.6°C 97% Calm Calm -- 29.81 in1009.5 mb 0.00 in0.0 mm 0.00 in0.0 mm 0.21 in5.3 mm
10:03 AM 78.6°F25.9°C 77.7°F25.4°C 97% Calm Calm -- 29.81 in1009.5 mb 0.00 in0.0 mm 0.00 in0.0 mm 0.21 in5.3 mm
09:59 AM 78.6°F25.9°C 77.5°F25.3°C 97% Calm Calm -- 29.81 in1009.5 mb 0.00 in0.0 mm 0.00 in0.0 mm 0.21 in5.3 mm
09:54 AM 78.4°F25.8°C 77.5°F25.3°C 97% Calm Calm -- 29.81 in1009.5 mb 0.00 in0.0 mm 0.00 in0.0 mm 0.21 in5.3 mm
09:48 AM 78.1°F25.6°C 77.5°F25.3°C 98% Calm Calm -- 29.81 in1009.5 mb 0.00 in0.0 mm 0.00 in0.0 mm 0.21 in5.3 mm
09:44 AM 77.7°F25.4°C 77.1°F25.1°C 98% Calm Calm -- 29.81 in1009.5 mb 0.00 in0.0 mm 0.00 in0.0 mm 0.21 in5.3 mm
09:37 AM 77.5°F25.3°C 76.9°F24.9°C 98% Calm Calm -- 29.81 in1009.5 mb 0.00 in0.0 mm 0.00 in0.0 mm 0.21 in5.3 mm
09:33 AM 77.2°F25.1°C 76.6°F24.8°C 98% Calm Calm -- 29.81 in1009.5 mb 0.00 in0.0 mm 0.00 in0.0 mm 0.21 in5.3 mm
09:29 AM 77.2°F25.1°C 76.6°F24.8°C 98% Calm Calm -- 29.81 in1009.5 mb 0.00 in0.0 mm 0.00 in0.0 mm 0.21 in5.3 mm
09:22 AM 77.2°F25.1°C 76.6°F24.8°C 98% Calm Calm -- 29.81 in1009.5 mb 0.00 in0.0 mm 0.00 in0.0 mm 0.21 in5.3 mm
09:18 AM 77.0°F25.0°C 76.4°F24.7°C 98% Calm Calm -- 29.81 in1009.5 mb 0.00 in0.0 mm 0.00 in0.0 mm 0.21 in5.3 mm
09:11 AM 76.8°F24.9°C 76.2°F24.6°C 98% Calm Calm -- 29.81 in1009.5 mb 0.00 in0.0 mm 0.00 in0.0 mm 0.21 in5.3 mm
09:07 AM 76.8°F24.9°C 76.5°F24.7°C 99% Calm Calm -- 29.81 in1009.5 mb 0.00 in0.0 mm 0.00 in0.0 mm 0.21 in5.3 mm
09:01 AM 76.8°F24.9°C 76.5°F24.7°C 99% Calm Calm -- 29.81 in1009.5 mb 0.00 in0.0 mm 0.00 in0.0 mm 0.21 in5.3 mm
08:56 AM 76.8°F24.9°C 76.5°F24.7°C 99% Calm Calm -- 29.81 in1009.5 mb 0.00 in0.0 mm 0.00 in0.0 mm 0.21 in5.3 mm
08:50 AM 76.8°F24.9°C 76.5°F24.7°C 99% Calm Calm -- 29.81 in1009.5 mb 0.00 in0.0 mm 0.00 in0.0 mm 0.21 in5.3 mm
08:46 AM 76.8°F24.9°C 76.5°F24.7°C 99% Calm Calm -- 29.80 in1009.1 mb 0.00 in0.0 mm 0.00 in0.0 mm 0.21 in5.3 mm
08:39 AM 76.8°F24.9°C 76.5°F24.7°C 99% Calm Calm -- 29.80 in1009.1 mb 0.00 in0.0 mm 0.00 in0.0 mm 0.21 in5.3 mm
08:35 AM 76.8°F24.9°C 76.5°F24.7°C 99% Calm Calm -- 29.81 in1009.5 mb 0.00 in0.0 mm 0.00 in0.0 mm 0.21 in5.3 mm
08:31 AM 76.8°F24.9°C 76.5°F24.7°C 99% Calm Calm -- 29.80 in1009.1 mb 0.00 in0.0 mm 0.00 in0.0 mm 0.21 in5.3 mm
08:24 AM 76.6°F24.8°C 76.3°F24.6°C 99% Calm Calm -- 29.80 in1009.1 mb 0.00 in0.0 mm 0.00 in0.0 mm 0.21 in5.3 mm
08:20 AM 76.6°F24.8°C 76.3°F24.6°C 99% Calm Calm -- 29.80 in1009.1 mb 0.00 in0.0 mm 0.00 in0.0 mm 0.21 in5.3 mm
08:14 AM 76.6°F24.8°C 76.3°F24.6°C 99% Calm Calm -- 29.80 in1009.1 mb 0.00 in0.0 mm 0.00 in0.0 mm 0.21 in5.3 mm
08:09 AM 76.5°F24.7°C 76.2°F24.6°C 99% Calm Calm -- 29.80 in1009.1 mb 0.00 in0.0 mm 0.00 in0.0 mm 0.21 in5.3 mm
08:03 AM 76.5°F24.7°C 76.2°F24.6°C 99% Calm Calm -- 29.80 in1009.1 mb 0.00 in0.0 mm 0.00 in0.0 mm 0.21 in5.3 mm
07:59 AM 76.3°F24.6°C 76.0°F24.4°C 99% Calm Calm -- 29.80 in1009.1 mb 0.00 in0.0 mm 0.00 in0.0 mm 0.21 in5.3 mm
07:52 AM 76.3°F24.6°C 76.0°F24.4°C 99% Calm Calm -- 29.80 in1009.1 mb 0.00 in0.0 mm 0.00 in0.0 mm 0.21 in5.3 mm
07:48 AM 76.3°F24.6°C 76.0°F24.4°C 99% Calm Calm -- 29.80 in1009.1 mb 0.00 in0.0 mm 0.00 in0.0 mm 0.21 in5.3 mm
07:44 AM 76.3°F24.6°C 75.7°F24.3°C 98% Calm Calm -- 29.80 in1009.1 mb 0.00 in0.0 mm 0.00 in0.0 mm 0.21 in5.3 mm
07:37 AM 76.1°F24.5°C 75.8°F24.3°C 99% Calm Calm -- 29.80 in1009.1 mb 0.00 in0.0 mm 0.00 in0.0 mm 0.21 in5.3 mm
07:33 AM 76.1°F24.5°C 75.5°F24.2°C 98% Calm Calm -- 29.80 in1009.1 mb 0.00 in0.0 mm 0.00 in0.0 mm 0.21 in5.3 mm
07:26 AM 75.9°F24.4°C 75.3°F24.1°C 98% Calm Calm -- 29.80 in1009.1 mb 0.00 in0.0 mm 0.00 in0.0 mm 0.21 in5.3 mm
07:22 AM 75.9°F24.4°C 75.3°F24.1°C 98% Calm Calm -- 29.80 in1009.1 mb 0.00 in0.0 mm 0.00 in0.0 mm 0.21 in5.3 mm
07:16 AM 75.7°F24.3°C 75.1°F23.9°C 98% Calm Calm -- 29.79 in1008.8 mb 0.00 in0.0 mm 0.00 in0.0 mm 0.21 in5.3 mm
07:11 AM 75.7°F24.3°C 75.1°F23.9°C 98% Calm Calm -- 29.79 in1008.8 mb 0.00 in0.0 mm 0.00 in0.0 mm 0.21 in5.3 mm
07:05 AM 75.7°F24.3°C 75.1°F23.9°C 98% Calm Calm -- 29.79 in1008.8 mb 0.00 in0.0 mm 0.00 in0.0 mm 0.21 in5.3 mm
07:01 AM 75.6°F24.2°C 74.9°F23.8°C 98% Calm Calm -- 29.79 in1008.8 mb 0.00 in0.0 mm 0.00 in0.0 mm 0.21 in5.3 mm
06:54 AM 75.6°F24.2°C 74.9°F23.8°C 98% Calm Calm -- 29.79 in1008.8 mb 0.00 in0.0 mm 0.00 in0.0 mm 0.21 in5.3 mm
06:50 AM 75.6°F24.2°C 74.9°F23.8°C 98% Calm Calm -- 29.79 in1008.8 mb 0.00 in0.0 mm 0.00 in0.0 mm 0.21 in5.3 mm
06:44 AM 75.4°F24.1°C 74.8°F23.8°C 98% Calm Calm -- 29.79 in1008.8 mb 0.00 in0.0 mm 0.00 in0.0 mm 0.21 in5.3 mm
06:39 AM 75.4°F24.1°C 74.8°F23.8°C 98% Calm Calm -- 29.79 in1008.8 mb 0.00 in0.0 mm 0.00 in0.0 mm 0.21 in5.3 mm
06:35 AM 75.4°F24.1°C 74.8°F23.8°C 98% Calm Calm -- 29.79 in1008.8 mb 0.02 in0.5 mm 0.00 in0.0 mm 0.21 in5.3 mm
06:29 AM 75.4°F24.1°C 74.8°F23.8°C 98% Calm Calm -- 29.78 in1008.5 mb 0.02 in0.5 mm 0.00 in0.0 mm 0.21 in5.3 mm
06:24 AM 75.4°F24.1°C 74.8°F23.8°C 98% Calm Calm -- 29.78 in1008.5 mb 0.02 in0.5 mm 0.00 in0.0 mm 0.21 in5.3 mm
06:18 AM 75.4°F24.1°C 74.8°F23.8°C 98% Calm Calm -- 29.78 in1008.5 mb 0.02 in0.5 mm 0.00 in0.0 mm 0.21 in5.3 mm
06:14 AM 75.4°F24.1°C 74.8°F23.8°C 98% Calm Calm -- 29.78 in1008.5 mb 0.02 in0.5 mm 0.00 in0.0 mm 0.21 in5.3 mm
06:09 AM 75.4°F24.1°C 74.8°F23.8°C 98% Calm Calm -- 29.78 in1008.5 mb 0.02 in0.5 mm 0.00 in0.0 mm 0.21 in5.3 mm
06:03 AM 75.4°F24.1°C 74.8°F23.8°C 98% Calm Calm -- 29.78 in1008.5 mb 0.02 in0.5 mm 0.00 in0.0 mm 0.21 in5.3 mm
05:59 AM 75.4°F24.1°C 74.8°F23.8°C 98% Calm Calm -- 29.78 in1008.5 mb 0.02 in0.5 mm 0.00 in0.0 mm 0.21 in5.3 mm
05:52 AM 75.4°F24.1°C 74.8°F23.8°C 98% Calm Calm -- 29.77 in1008.1 mb 0.02 in0.5 mm 0.00 in0.0 mm 0.21 in5.3 mm
05:48 AM 75.4°F24.1°C 74.8°F23.8°C 98% Calm Calm -- 29.77 in1008.1 mb 0.02 in0.5 mm 0.00 in0.0 mm 0.21 in5.3 mm
05:44 AM 75.4°F24.1°C 74.8°F23.8°C 98% Calm Calm -- 29.77 in1008.1 mb 0.02 in0.5 mm 0.17 in4.3 mm 0.21 in5.3 mm
05:37 AM 75.4°F24.1°C 74.8°F23.8°C 98% Calm Calm -- 29.77 in1008.1 mb 0.00 in0.0 mm 0.00 in0.0 mm 0.19 in4.8 mm
05:33 AM 75.4°F24.1°C 74.8°F23.8°C 98% Calm Calm -- 29.77 in1008.1 mb 0.00 in0.0 mm 0.00 in0.0 mm 0.19 in4.8 mm
05:26 AM 75.4°F24.1°C 74.8°F23.8°C 98% Calm Calm -- 29.77 in1008.1 mb 0.00 in0.0 mm 0.00 in0.0 mm 0.19 in4.8 mm
05:22 AM 75.4°F24.1°C 74.8°F23.8°C 98% Calm Calm -- 29.77 in1008.1 mb 0.00 in0.0 mm 0.00 in0.0 mm 0.19 in4.8 mm
05:18 AM 75.4°F24.1°C 74.8°F23.8°C 98% Calm Calm -- 29.76 in1007.8 mb 0.00 in0.0 mm 0.00 in0.0 mm 0.19 in4.8 mm
05:12 AM 75.4°F24.1°C 74.8°F23.8°C 98% Calm Calm -- 29.77 in1008.1 mb 0.00 in0.0 mm 0.00 in0.0 mm 0.19 in4.8 mm
05:07 AM 75.4°F24.1°C 74.8°F23.8°C 98% Calm Calm -- 29.76 in1007.8 mb 0.00 in0.0 mm 0.00 in0.0 mm 0.19 in4.8 mm
05:01 AM 75.2°F24.0°C 74.6°F23.7°C 98% Calm Calm -- 29.76 in1007.8 mb 0.00 in0.0 mm 0.00 in0.0 mm 0.19 in4.8 mm
04:56 AM 75.2°F24.0°C 74.6°F23.7°C 98% Calm Calm -- 29.76 in1007.8 mb 0.00 in0.0 mm 0.00 in0.0 mm 0.19 in4.8 mm
04:52 AM 75.2°F24.0°C 74.6°F23.7°C 98% Calm Calm -- 29.76 in1007.8 mb 0.00 in0.0 mm 0.00 in0.0 mm 0.19 in4.8 mm
04:46 AM 75.2°F24.0°C 74.6°F23.7°C 98% Calm Calm -- 29.77 in1008.1 mb 0.00 in0.0 mm 0.00 in0.0 mm 0.19 in4.8 mm
04:42 AM 75.2°F24.0°C 74.6°F23.7°C 98% Calm Calm -- 29.77 in1008.1 mb 0.00 in0.0 mm 0.00 in0.0 mm 0.19 in4.8 mm
04:37 AM 75.2°F24.0°C 74.6°F23.7°C 98% Calm Calm -- 29.76 in1007.8 mb 0.00 in0.0 mm 0.00 in0.0 mm 0.19 in4.8 mm
04:31 AM 75.0°F23.9°C 74.4°F23.6°C 98% Calm Calm -- 29.76 in1007.8 mb 0.00 in0.0 mm 0.00 in0.0 mm 0.19 in4.8 mm
04:24 AM 75.2°F24.0°C 74.6°F23.7°C 98% Calm Calm -- 29.76 in1007.8 mb 0.00 in0.0 mm 0.00 in0.0 mm 0.19 in4.8 mm
04:20 AM 75.2°F24.0°C 74.6°F23.7°C 98% Calm Calm -- 29.76 in1007.8 mb 0.00 in0.0 mm 0.00 in0.0 mm 0.19 in4.8 mm
04:14 AM 75.2°F24.0°C 74.6°F23.7°C 98% Calm Calm -- 29.76 in1007.8 mb 0.00 in0.0 mm 0.00 in0.0 mm 0.19 in4.8 mm
04:09 AM 75.2°F24.0°C 74.6°F23.7°C 98% Calm Calm -- 29.76 in1007.8 mb 0.00 in0.0 mm 0.00 in0.0 mm 0.19 in4.8 mm
04:05 AM 75.4°F24.1°C 74.8°F23.8°C 98% Calm Calm -- 29.76 in1007.8 mb 0.00 in0.0 mm 0.00 in0.0 mm 0.19 in4.8 mm
03:59 AM 75.4°F24.1°C 74.8°F23.8°C 98% Calm Calm -- 29.76 in1007.8 mb 0.00 in0.0 mm 0.00 in0.0 mm 0.19 in4.8 mm
03:54 AM 75.4°F24.1°C 74.8°F23.8°C 98% Calm Calm -- 29.76 in1007.8 mb 0.00 in0.0 mm 0.00 in0.0 mm 0.19 in4.8 mm
03:48 AM 75.4°F24.1°C 74.8°F23.8°C 98% Calm Calm -- 29.75 in1007.5 mb 0.00 in0.0 mm 0.00 in0.0 mm 0.19 in4.8 mm
03:44 AM 75.4°F24.1°C 74.8°F23.8°C 98% Calm Calm -- 29.76 in1007.8 mb 0.00 in0.0 mm 0.00 in0.0 mm 0.19 in4.8 mm
03:39 AM 75.4°F24.1°C 74.8°F23.8°C 98% Calm Calm -- 29.75 in1007.5 mb 0.00 in0.0 mm 0.00 in0.0 mm 0.19 in4.8 mm
03:33 AM 75.4°F24.1°C 74.8°F23.8°C 98% Calm Calm -- 29.76 in1007.8 mb 0.00 in0.0 mm 0.00 in0.0 mm 0.19 in4.8 mm
03:29 AM 75.4°F24.1°C 74.8°F23.8°C 98% Calm Calm -- 29.76 in1007.8 mb 0.02 in0.5 mm 0.00 in0.0 mm 0.19 in4.8 mm
03:22 AM 75.4°F24.1°C 74.8°F23.8°C 98% Calm Calm -- 29.76 in1007.8 mb 0.06 in1.5 mm 0.00 in0.0 mm 0.19 in4.8 mm
03:18 AM 75.4°F24.1°C 74.8°F23.8°C 98% Calm Calm -- 29.76 in1007.8 mb 0.10 in2.5 mm 0.00 in0.0 mm 0.19 in4.8 mm
03:14 AM 75.4°F24.1°C 74.8°F23.8°C 98% Calm Calm -- 29.76 in1007.8 mb 0.16 in4.1 mm 0.00 in0.0 mm 0.19 in4.8 mm
03:07 AM 75.4°F24.1°C 74.8°F23.8°C 98% Calm Calm -- 29.75 in1007.5 mb 0.16 in4.1 mm 0.00 in0.0 mm 0.19 in4.8 mm
03:03 AM 75.4°F24.1°C 74.8°F23.8°C 98% Calm Calm -- 29.75 in1007.5 mb 0.16 in4.1 mm 0.00 in0.0 mm 0.19 in4.8 mm
02:57 AM 75.4°F24.1°C 74.8°F23.8°C 98% Calm Calm -- 29.75 in1007.5 mb 0.16 in4.1 mm 0.00 in0.0 mm 0.19 in4.8 mm
02:52 AM 75.4°F24.1°C 74.8°F23.8°C 98% Calm Calm -- 29.75 in1007.5 mb 0.16 in4.1 mm 0.00 in0.0 mm 0.19 in4.8 mm
02:44 AM 75.4°F24.1°C 74.8°F23.8°C 98% Calm Calm -- 29.75 in1007.5 mb 0.16 in4.1 mm 0.00 in0.0 mm 0.19 in4.8 mm
02:39 AM 75.6°F24.2°C 74.9°F23.8°C 98% Calm Calm -- 29.75 in1007.5 mb 0.16 in4.1 mm 0.00 in0.0 mm 0.19 in4.8 mm
02:35 AM 75.6°F24.2°C 74.9°F23.8°C 98% Calm Calm -- 29.76 in1007.8 mb 0.16 in4.1 mm 0.20 in5.1 mm 0.19 in4.8 mm
02:29 AM 75.7°F24.3°C 74.8°F23.8°C 97% Calm Calm -- 29.76 in1007.8 mb 0.14 in3.6 mm 0.48 in12.2 mm 0.15 in3.8 mm
02:24 AM 75.7°F24.3°C 74.8°F23.8°C 97% Calm Calm -- 29.76 in1007.8 mb 0.10 in2.5 mm 0.60 in15.2 mm 0.11 in2.8 mm
02:20 AM 75.7°F24.3°C 74.8°F23.8°C 97% Calm Calm -- 29.76 in1007.8 mb 0.06 in1.5 mm 0.60 in15.2 mm 0.05 in1.3 mm
02:14 AM 75.7°F24.3°C 74.8°F23.8°C 97% Calm Calm -- 29.77 in1008.1 mb 0.00 in0.0 mm 0.00 in0.0 mm 0.03 in0.8 mm
02:07 AM 75.7°F24.3°C 74.8°F23.8°C 97% Calm Calm -- 29.77 in1008.1 mb 0.00 in0.0 mm 0.00 in0.0 mm 0.03 in0.8 mm
02:03 AM 75.9°F24.4°C 75.0°F23.9°C 97% Calm Calm -- 29.77 in1008.1 mb 0.00 in0.0 mm 0.00 in0.0 mm 0.03 in0.8 mm
01:59 AM 75.9°F24.4°C 75.0°F23.9°C 97% Calm Calm -- 29.77 in1008.1 mb 0.00 in0.0 mm 0.00 in0.0 mm 0.03 in0.8 mm
01:52 AM 75.9°F24.4°C 75.0°F23.9°C 97% Calm Calm -- 29.77 in1008.1 mb 0.00 in0.0 mm 0.00 in0.0 mm 0.03 in0.8 mm
01:48 AM 75.9°F24.4°C 75.0°F23.9°C 97% Calm Calm -- 29.77 in1008.1 mb 0.00 in0.0 mm 0.00 in0.0 mm 0.03 in0.8 mm
01:42 AM 75.9°F24.4°C 75.0°F23.9°C 97% Calm Calm 0.2 mph0.3 kmh 29.78 in1008.5 mb 0.00 in0.0 mm 0.00 in0.0 mm 0.03 in0.8 mm
01:37 AM 75.9°F24.4°C 75.0°F23.9°C 97% Calm Calm 0.2 mph0.3 kmh 29.78 in1008.5 mb 0.00 in0.0 mm 0.00 in0.0 mm 0.03 in0.8 mm
01:31 AM 76.1°F24.5°C 75.2°F24.0°C 97% Calm Calm -- 29.78 in1008.5 mb 0.00 in0.0 mm 0.00 in0.0 mm 0.03 in0.8 mm
01:27 AM 76.1°F24.5°C 75.2°F24.0°C 97% Calm Calm -- 29.79 in1008.8 mb 0.00 in0.0 mm 0.00 in0.0 mm 0.03 in0.8 mm
01:20 AM 76.1°F24.5°C 75.2°F24.0°C 97% Calm Calm -- 29.79 in1008.8 mb 0.00 in0.0 mm 0.00 in0.0 mm 0.03 in0.8 mm
01:16 AM 76.1°F24.5°C 75.2°F24.0°C 97% Calm Calm -- 29.79 in1008.8 mb 0.00 in0.0 mm 0.00 in0.0 mm 0.03 in0.8 mm
01:12 AM 76.3°F24.6°C 75.4°F24.1°C 97% Calm Calm -- 29.79 in1008.8 mb 0.00 in0.0 mm 0.00 in0.0 mm 0.03 in0.8 mm
01:05 AM 76.3°F24.6°C 75.4°F24.1°C 97% Calm Calm -- 29.80 in1009.1 mb 0.02 in0.5 mm 0.00 in0.0 mm 0.03 in0.8 mm
01:01 AM 76.3°F24.6°C 75.4°F24.1°C 97% Calm Calm -- 29.80 in1009.1 mb 0.02 in0.5 mm 0.00 in0.0 mm 0.03 in0.8 mm
12:55 AM 76.3°F24.6°C 75.4°F24.1°C 97% Calm Calm -- 29.80 in1009.1 mb 0.02 in0.5 mm 0.00 in0.0 mm 0.03 in0.8 mm
12:48 AM 76.3°F24.6°C 75.4°F24.1°C 97% Calm Calm -- 29.80 in1009.1 mb 0.04 in1.0 mm 0.00 in0.0 mm 0.03 in0.8 mm
12:44 AM 76.5°F24.7°C 75.5°F24.2°C 97% Calm Calm -- 29.80 in1009.1 mb 0.04 in1.0 mm 0.00 in0.0 mm 0.03 in0.8 mm
12:37 AM 76.3°F24.6°C 75.4°F24.1°C 97% Calm Calm -- 29.80 in1009.1 mb 0.04 in1.0 mm 0.00 in0.0 mm 0.03 in0.8 mm
12:33 AM 76.5°F24.7°C 75.5°F24.2°C 97% Calm Calm -- 29.80 in1009.1 mb 0.04 in1.0 mm 0.00 in0.0 mm 0.03 in0.8 mm
12:27 AM 76.6°F24.8°C 75.7°F24.3°C 97% Calm Calm -- 29.80 in1009.1 mb 0.04 in1.0 mm 0.00 in0.0 mm 0.03 in0.8 mm
12:22 AM 76.6°F24.8°C 75.7°F24.3°C 97% Calm Calm -- 29.81 in1009.5 mb 0.04 in1.0 mm 0.00 in0.0 mm 0.03 in0.8 mm
12:16 AM 76.8°F24.9°C 75.9°F24.4°C 97% Calm Calm -- 29.81 in1009.5 mb 0.04 in1.0 mm 0.00 in0.0 mm 0.03 in0.8 mm
12:12 AM 76.8°F24.9°C 75.9°F24.4°C 97% Calm Calm -- 29.81 in1009.5 mb 0.04 in1.0 mm 0.17 in4.3 mm 0.03 in0.8 mm
12:05 AM 76.8°F24.9°C 75.9°F24.4°C 97% Calm Calm -- 29.82 in1009.8 mb 0.02 in0.5 mm 0.00 in0.0 mm 0.02 in0.5 mm
12:01 AM 76.8°F24.9°C 75.9°F24.4°C 97% Calm Calm -- 29.82 in1009.8 mb 0.02 in0.5 mm 1.20 in30.5 mm 0.02 in0.5 mm